sensor_id;sensor_type;location;lat;lon;timestamp;P1;durP1;ratioP1;P2;durP2;ratioP2
63394;SDS011;49531;-34.520;150.798;2022-09-01T00:24:48;5.68;;;1.40;;
63394;SDS011;49531;-34.520;150.798;2022-09-01T00:27:16;4.68;;;1.40;;
63394;SDS011;49531;-34.520;150.798;2022-09-01T00:29:43;23.67;;;10.98;;
63394;SDS011;49531;-34.520;150.798;2022-09-01T00:32:10;5.68;;;1.70;;
63394;SDS011;49531;-34.520;150.798;2022-09-01T00:34:38;7.80;;;2.08;;
63394;SDS011;49531;-34.520;150.798;2022-09-01T00:37:05;6.32;;;2.55;;
63394;SDS011;49531;-34.520;150.798;2022-09-01T00:39:33;5.00;;;2.10;;
63394;SDS011;49531;-34.520;150.798;2022-09-01T00:42:00;4.35;;;2.17;;
63394;SDS011;49531;-34.520;150.798;2022-09-01T00:44:27;7.32;;;2.35;;
63394;SDS011;49531;-34.520;150.798;2022-09-01T00:46:54;5.30;;;2.35;;
63394;SDS011;49531;-34.520;150.798;2022-09-01T00:49:25;6.50;;;2.50;;
63394;SDS011;49531;-34.520;150.798;2022-09-01T00:52:00;5.53;;;2.60;;
63394;SDS011;49531;-34.520;150.798;2022-09-01T00:54:35;5.47;;;2.70;;
63394;SDS011;49531;-34.520;150.798;2022-09-01T00:57:06;5.05;;;2.20;;
63394;SDS011;49531;-34.520;150.798;2022-09-01T00:59:35;6.28;;;2.30;;
63394;SDS011;49531;-34.520;150.798;2022-09-01T01:02:09;5.20;;;2.40;;
63394;SDS011;49531;-34.520;150.798;2022-09-01T01:04:36;5.20;;;2.60;;
63394;SDS011;49531;-34.520;150.798;2022-09-01T01:07:03;5.82;;;2.53;;
63394;SDS011;49531;-34.520;150.798;2022-09-01T01:09:34;7.07;;;2.40;;
63394;SDS011;49531;-34.520;150.798;2022-09-01T01:12:05;5.10;;;2.53;;
63394;SDS011;49531;-34.520;150.798;2022-09-01T01:14:46;5.82;;;2.53;;
63394;SDS011;49531;-34.520;150.798;2022-09-01T01:17:15;5.35;;;2.53;;
63394;SDS011;49531;-34.520;150.798;2022-09-01T01:22:51;5.57;;;2.80;;
63394;SDS011;49531;-34.520;150.798;2022-09-01T01:30:46;5.78;;;2.60;;
63394;SDS011;49531;-34.520;150.798;2022-09-01T01:33:19;5.93;;;3.00;;
63394;SDS011;49531;-34.520;150.798;2022-09-01T01:35:51;5.45;;;2.80;;
63394;SDS011;49531;-34.520;150.798;2022-09-01T01:38:22;9.05;;;2.80;;
63394;SDS011;49531;-34.520;150.798;2022-09-01T01:40:52;5.22;;;2.55;;
63394;SDS011;49531;-34.520;150.798;2022-09-01T01:43:21;4.85;;;3.13;;
63394;SDS011;49531;-34.520;150.798;2022-09-01T01:45:50;4.57;;;2.70;;
63394;SDS011;49531;-34.520;150.798;2022-09-01T01:48:21;5.68;;;2.75;;
63394;SDS011;49531;-34.520;150.798;2022-09-01T01:50:52;7.07;;;3.20;;
63394;SDS011;49531;-34.520;150.798;2022-09-01T01:53:20;5.47;;;2.72;;
63394;SDS011;49531;-34.520;150.798;2022-09-01T01:55:47;6.55;;;2.75;;
63394;SDS011;49531;-34.520;150.798;2022-09-01T01:58:19;5.72;;;2.40;;
63394;SDS011;49531;-34.520;150.798;2022-09-01T02:00:49;6.43;;;2.63;;
63394;SDS011;49531;-34.520;150.798;2022-09-01T02:03:19;5.45;;;2.63;;
63394;SDS011;49531;-34.520;150.798;2022-09-01T02:05:50;5.10;;;3.10;;
63394;SDS011;49531;-34.520;150.798;2022-09-01T02:08:19;6.97;;;2.88;;
63394;SDS011;49531;-34.520;150.798;2022-09-01T02:10:51;5.72;;;3.03;;
63394;SDS011;49531;-34.520;150.798;2022-09-01T02:13:20;5.25;;;3.03;;
63394;SDS011;49531;-34.520;150.798;2022-09-01T02:15:56;5.78;;;2.60;;
63394;SDS011;49531;-34.520;150.798;2022-09-01T02:18:29;4.78;;;2.75;;
63394;SDS011;49531;-34.520;150.798;2022-09-01T02:23:28;9.70;;;3.45;;
63394;SDS011;49531;-34.520;150.798;2022-09-01T02:25:57;9.30;;;3.40;;
63394;SDS011;49531;-34.520;150.798;2022-09-01T02:28:28;16.02;;;3.95;;
63394;SDS011;49531;-34.520;150.798;2022-09-01T02:30:57;12.77;;;3.83;;
63394;SDS011;49531;-34.520;150.798;2022-09-01T02:33:26;10.45;;;3.30;;
63394;SDS011;49531;-34.520;150.798;2022-09-01T02:35:56;17.50;;;3.80;;
63394;SDS011;49531;-34.520;150.798;2022-09-01T02:38:25;11.07;;;4.22;;
63394;SDS011;49531;-34.520;150.798;2022-09-01T02:40:57;9.63;;;3.80;;
63394;SDS011;49531;-34.520;150.798;2022-09-01T02:43:25;16.05;;;5.07;;
63394;SDS011;49531;-34.520;150.798;2022-09-01T02:45:55;22.02;;;5.72;;
63394;SDS011;49531;-34.520;150.798;2022-09-01T02:48:57;22.10;;;5.63;;
63394;SDS011;49531;-34.520;150.798;2022-09-01T02:51:18;16.27;;;4.40;;
63394;SDS011;49531;-34.520;150.798;2022-09-01T02:53:50;14.73;;;5.23;;
63394;SDS011;49531;-34.520;150.798;2022-09-01T02:56:18;14.40;;;4.40;;
63394;SDS011;49531;-34.520;150.798;2022-09-01T02:58:47;12.93;;;3.90;;
63394;SDS011;49531;-34.520;150.798;2022-09-01T03:01:22;12.95;;;3.60;;
63394;SDS011;49531;-34.520;150.798;2022-09-01T03:03:54;13.85;;;3.80;;
63394;SDS011;49531;-34.520;150.798;2022-09-01T03:06:24;12.65;;;3.40;;
63394;SDS011;49531;-34.520;150.798;2022-09-01T03:08:54;15.93;;;3.72;;
63394;SDS011;49531;-34.520;150.798;2022-09-01T03:11:24;26.95;;;4.30;;
63394;SDS011;49531;-34.520;150.798;2022-09-01T03:13:53;20.77;;;3.92;;
63394;SDS011;49531;-34.520;150.798;2022-09-01T03:16:20;21.90;;;3.90;;
63394;SDS011;49531;-34.520;150.798;2022-09-01T03:18:47;15.30;;;3.70;;
63394;SDS011;49531;-34.520;150.798;2022-09-01T03:21:15;14.43;;;3.50;;
63394;SDS011;49531;-34.520;150.798;2022-09-01T03:23:43;12.63;;;3.50;;
63394;SDS011;49531;-34.520;150.798;2022-09-01T03:26:11;8.20;;;3.20;;
63394;SDS011;49531;-34.520;150.798;2022-09-01T03:28:43;7.80;;;3.08;;
63394;SDS011;49531;-34.520;150.798;2022-09-01T03:31:11;13.18;;;3.17;;
63394;SDS011;49531;-34.520;150.798;2022-09-01T03:33:38;11.57;;;3.38;;
63394;SDS011;49531;-34.520;150.798;2022-09-01T03:36:06;12.10;;;3.10;;
63394;SDS011;49531;-34.520;150.798;2022-09-01T03:38:33;14.57;;;3.20;;
63394;SDS011;49531;-34.520;150.798;2022-09-01T03:41:02;12.52;;;2.90;;
63394;SDS011;49531;-34.520;150.798;2022-09-01T03:43:31;7.32;;;2.40;;
63394;SDS011;49531;-34.520;150.798;2022-09-01T03:45:59;11.30;;;3.22;;
63394;SDS011;49531;-34.520;150.798;2022-09-01T03:48:29;9.65;;;3.10;;
63394;SDS011;49531;-34.520;150.798;2022-09-01T03:50:58;11.88;;;3.03;;
63394;SDS011;49531;-34.520;150.798;2022-09-01T03:53:31;11.38;;;3.05;;
63394;SDS011;49531;-34.520;150.798;2022-09-01T03:58:28;8.90;;;2.97;;
63394;SDS011;49531;-34.520;150.798;2022-09-01T04:00:57;10.20;;;3.17;;
63394;SDS011;49531;-34.520;150.798;2022-09-01T04:03:27;10.05;;;2.83;;
63394;SDS011;49531;-34.520;150.798;2022-09-01T04:05:57;22.95;;;2.88;;
63394;SDS011;49531;-34.520;150.798;2022-09-01T04:08:26;11.18;;;2.75;;
63394;SDS011;49531;-34.520;150.798;2022-09-01T04:10:57;11.20;;;2.67;;
63394;SDS011;49531;-34.520;150.798;2022-09-01T04:15:58;7.85;;;2.28;;
63394;SDS011;49531;-34.520;150.798;2022-09-01T04:18:25;10.02;;;2.65;;
63394;SDS011;49531;-34.520;150.798;2022-09-01T04:20:54;11.10;;;2.17;;
63394;SDS011;49531;-34.520;150.798;2022-09-01T04:23:25;10.05;;;2.20;;
63394;SDS011;49531;-34.520;150.798;2022-09-01T04:26:04;7.05;;;2.15;;
63394;SDS011;49531;-34.520;150.798;2022-09-01T04:28:43;9.32;;;2.35;;
63394;SDS011;49531;-34.520;150.798;2022-09-01T04:31:12;7.03;;;2.00;;
63394;SDS011;49531;-34.520;150.798;2022-09-01T04:33:48;7.00;;;2.00;;
63394;SDS011;49531;-34.520;150.798;2022-09-01T04:36:26;7.85;;;2.30;;
63394;SDS011;49531;-34.520;150.798;2022-09-01T04:38:59;6.82;;;2.00;;
63394;SDS011;49531;-34.520;150.798;2022-09-01T04:41:33;10.07;;;2.00;;
63394;SDS011;49531;-34.520;150.798;2022-09-01T04:44:03;9.38;;;2.10;;
63394;SDS011;49531;-34.520;150.798;2022-09-01T04:46:32;10.07;;;2.00;;
63394;SDS011;49531;-34.520;150.798;2022-09-01T04:49:04;8.45;;;2.50;;
63394;SDS011;49531;-34.520;150.798;2022-09-01T04:51:37;8.52;;;1.80;;
63394;SDS011;49531;-34.520;150.798;2022-09-01T04:54:05;9.35;;;2.40;;
63394;SDS011;49531;-34.520;150.798;2022-09-01T04:56:35;7.45;;;1.90;;
63394;SDS011;49531;-34.520;150.798;2022-09-01T04:59:02;8.18;;;2.00;;
63394;SDS011;49531;-34.520;150.798;2022-09-01T05:01:31;8.10;;;2.15;;
63394;SDS011;49531;-34.520;150.798;2022-09-01T05:04:20;7.35;;;2.20;;
63394;SDS011;49531;-34.520;150.798;2022-09-01T05:06:52;3.92;;;1.75;;
63394;SDS011;49531;-34.520;150.798;2022-09-01T05:09:29;9.43;;;2.05;;
63394;SDS011;49531;-34.520;150.798;2022-09-01T05:12:02;7.25;;;2.00;;
63394;SDS011;49531;-34.520;150.798;2022-09-01T05:14:40;8.45;;;1.85;;
63394;SDS011;49531;-34.520;150.798;2022-09-01T05:17:09;5.90;;;1.87;;
63394;SDS011;49531;-34.520;150.798;2022-09-01T05:19:38;5.18;;;1.98;;
63394;SDS011;49531;-34.520;150.798;2022-09-01T05:22:08;7.88;;;2.10;;
63394;SDS011;49531;-34.520;150.798;2022-09-01T05:24:35;5.13;;;1.85;;
63394;SDS011;49531;-34.520;150.798;2022-09-01T05:27:03;9.38;;;2.08;;
63394;SDS011;49531;-34.520;150.798;2022-09-01T05:29:31;8.25;;;1.83;;
63394;SDS011;49531;-34.520;150.798;2022-09-01T05:32:02;6.20;;;1.70;;
63394;SDS011;49531;-34.520;150.798;2022-09-01T05:34:34;8.10;;;2.03;;
63394;SDS011;49531;-34.520;150.798;2022-09-01T05:37:03;7.97;;;2.00;;
63394;SDS011;49531;-34.520;150.798;2022-09-01T05:39:33;8.32;;;1.98;;
63394;SDS011;49531;-34.520;150.798;2022-09-01T05:42:02;13.48;;;2.33;;
63394;SDS011;49531;-34.520;150.798;2022-09-01T05:44:32;9.25;;;2.22;;
63394;SDS011;49531;-34.520;150.798;2022-09-01T05:47:00;8.82;;;2.45;;
63394;SDS011;49531;-34.520;150.798;2022-09-01T05:49:27;11.82;;;2.53;;
63394;SDS011;49531;-34.520;150.798;2022-09-01T05:51:57;8.15;;;2.10;;
63394;SDS011;49531;-34.520;150.798;2022-09-01T05:54:25;8.48;;;2.20;;
63394;SDS011;49531;-34.520;150.798;2022-09-01T05:56:52;6.95;;;1.98;;
63394;SDS011;49531;-34.520;150.798;2022-09-01T05:59:21;6.75;;;2.10;;
63394;SDS011;49531;-34.520;150.798;2022-09-01T06:01:50;8.45;;;2.10;;
63394;SDS011;49531;-34.520;150.798;2022-09-01T06:04:17;8.20;;;2.20;;
63394;SDS011;49531;-34.520;150.798;2022-09-01T06:06:45;8.35;;;2.17;;
63394;SDS011;49531;-34.520;150.798;2022-09-01T06:09:14;9.23;;;2.17;;
63394;SDS011;49531;-34.520;150.798;2022-09-01T06:11:48;7.53;;;2.08;;
63394;SDS011;49531;-34.520;150.798;2022-09-01T06:14:16;6.03;;;1.92;;
63394;SDS011;49531;-34.520;150.798;2022-09-01T06:16:45;7.18;;;2.35;;
63394;SDS011;49531;-34.520;150.798;2022-09-01T06:19:13;8.35;;;2.25;;
63394;SDS011;49531;-34.520;150.798;2022-09-01T06:21:40;6.13;;;1.70;;
63394;SDS011;49531;-34.520;150.798;2022-09-01T06:24:07;8.80;;;2.28;;
63394;SDS011;49531;-34.520;150.798;2022-09-01T06:26:35;6.90;;;2.00;;
63394;SDS011;49531;-34.520;150.798;2022-09-01T06:29:08;6.10;;;1.85;;
63394;SDS011;49531;-34.520;150.798;2022-09-01T06:31:40;8.23;;;2.13;;
63394;SDS011;49531;-34.520;150.798;2022-09-01T06:34:16;7.07;;;2.10;;
63394;SDS011;49531;-34.520;150.798;2022-09-01T06:36:44;7.18;;;2.20;;
63394;SDS011;49531;-34.520;150.798;2022-09-01T06:39:14;6.70;;;1.92;;
63394;SDS011;49531;-34.520;150.798;2022-09-01T06:41:48;8.13;;;2.20;;
63394;SDS011;49531;-34.520;150.798;2022-09-01T06:44:17;8.35;;;2.15;;
63394;SDS011;49531;-34.520;150.798;2022-09-01T06:46:48;5.68;;;1.80;;
63394;SDS011;49531;-34.520;150.798;2022-09-01T06:49:17;7.05;;;2.00;;
63394;SDS011;49531;-34.520;150.798;2022-09-01T06:51:45;8.80;;;2.28;;
63394;SDS011;49531;-34.520;150.798;2022-09-01T06:54:14;7.45;;;1.95;;
63394;SDS011;49531;-34.520;150.798;2022-09-01T06:56:41;8.52;;;2.25;;
63394;SDS011;49531;-34.520;150.798;2022-09-01T06:59:08;5.00;;;1.83;;
63394;SDS011;49531;-34.520;150.798;2022-09-01T07:01:40;7.43;;;2.28;;
63394;SDS011;49531;-34.520;150.798;2022-09-01T07:04:07;7.40;;;2.20;;
63394;SDS011;49531;-34.520;150.798;2022-09-01T07:06:34;6.50;;;1.88;;
63394;SDS011;49531;-34.520;150.798;2022-09-01T07:09:04;10.02;;;2.00;;
63394;SDS011;49531;-34.520;150.798;2022-09-01T07:11:33;6.35;;;1.98;;
63394;SDS011;49531;-34.520;150.798;2022-09-01T07:14:01;5.95;;;1.90;;
63394;SDS011;49531;-34.520;150.798;2022-09-01T07:16:31;6.57;;;2.00;;
63394;SDS011;49531;-34.520;150.798;2022-09-01T07:19:05;5.10;;;1.80;;
63394;SDS011;49531;-34.520;150.798;2022-09-01T07:21:39;5.93;;;2.03;;
63394;SDS011;49531;-34.520;150.798;2022-09-01T07:24:08;6.53;;;1.77;;
63394;SDS011;49531;-34.520;150.798;2022-09-01T07:26:37;7.63;;;2.00;;
63394;SDS011;49531;-34.520;150.798;2022-09-01T07:29:05;5.70;;;1.70;;
63394;SDS011;49531;-34.520;150.798;2022-09-01T07:31:37;6.65;;;1.90;;
63394;SDS011;49531;-34.520;150.798;2022-09-01T07:34:09;5.93;;;1.90;;
63394;SDS011;49531;-34.520;150.798;2022-09-01T07:36:39;6.00;;;1.80;;
63394;SDS011;49531;-34.520;150.798;2022-09-01T07:39:08;6.25;;;1.75;;
63394;SDS011;49531;-34.520;150.798;2022-09-01T07:41:36;6.50;;;1.75;;
63394;SDS011;49531;-34.520;150.798;2022-09-01T07:44:06;7.30;;;2.13;;
63394;SDS011;49531;-34.520;150.798;2022-09-01T07:46:38;11.48;;;2.15;;
63394;SDS011;49531;-34.520;150.798;2022-09-01T07:49:06;5.88;;;2.03;;
63394;SDS011;49531;-34.520;150.798;2022-09-01T07:51:35;10.02;;;2.10;;
63394;SDS011;49531;-34.520;150.798;2022-09-01T07:54:02;13.43;;;2.20;;
63394;SDS011;49531;-34.520;150.798;2022-09-01T07:56:30;6.80;;;2.03;;
63394;SDS011;49531;-34.520;150.798;2022-09-01T07:58:57;7.25;;;2.10;;
63394;SDS011;49531;-34.520;150.798;2022-09-01T08:01:26;9.80;;;2.30;;
63394;SDS011;49531;-34.520;150.798;2022-09-01T08:03:55;8.15;;;2.10;;
63394;SDS011;49531;-34.520;150.798;2022-09-01T08:06:25;7.35;;;2.00;;
63394;SDS011;49531;-34.520;150.798;2022-09-01T08:08:54;6.45;;;1.88;;
63394;SDS011;49531;-34.520;150.798;2022-09-01T08:11:24;6.90;;;1.90;;
63394;SDS011;49531;-34.520;150.798;2022-09-01T08:13:54;10.25;;;2.38;;
63394;SDS011;49531;-34.520;150.798;2022-09-01T08:16:24;9.68;;;2.40;;
63394;SDS011;49531;-34.520;150.798;2022-09-01T08:18:52;12.10;;;2.63;;
63394;SDS011;49531;-34.520;150.798;2022-09-01T08:21:19;12.55;;;2.50;;
63394;SDS011;49531;-34.520;150.798;2022-09-01T08:23:51;11.15;;;2.55;;
63394;SDS011;49531;-34.520;150.798;2022-09-01T08:26:20;9.02;;;2.28;;
63394;SDS011;49531;-34.520;150.798;2022-09-01T08:28:50;9.25;;;2.28;;
63394;SDS011;49531;-34.520;150.798;2022-09-01T08:31:19;9.60;;;2.35;;
63394;SDS011;49531;-34.520;150.798;2022-09-01T08:33:47;12.55;;;2.60;;
63394;SDS011;49531;-34.520;150.798;2022-09-01T08:36:15;11.63;;;2.50;;
63394;SDS011;49531;-34.520;150.798;2022-09-01T08:38:43;7.70;;;1.95;;
63394;SDS011;49531;-34.520;150.798;2022-09-01T08:41:15;9.35;;;2.42;;
63394;SDS011;49531;-34.520;150.798;2022-09-01T08:46:36;11.75;;;2.40;;
63394;SDS011;49531;-34.520;150.798;2022-09-01T08:49:09;9.35;;;2.10;;
63394;SDS011;49531;-34.520;150.798;2022-09-01T08:57:00;10.18;;;2.47;;
63394;SDS011;49531;-34.520;150.798;2022-09-01T08:59:31;7.03;;;2.00;;
63394;SDS011;49531;-34.520;150.798;2022-09-01T09:11:03;6.30;;;2.30;;
63394;SDS011;49531;-34.520;150.798;2022-09-01T09:13:42;8.07;;;2.45;;
63394;SDS011;49531;-34.520;150.798;2022-09-01T09:16:29;10.85;;;2.58;;
63394;SDS011;49531;-34.520;150.798;2022-09-01T09:19:08;10.98;;;2.30;;
63394;SDS011;49531;-34.520;150.798;2022-09-01T09:21:58;6.55;;;2.40;;
63394;SDS011;49531;-34.520;150.798;2022-09-01T09:27:22;8.45;;;2.22;;
63394;SDS011;49531;-34.520;150.798;2022-09-01T09:29:51;8.90;;;2.50;;
63394;SDS011;49531;-34.520;150.798;2022-09-01T09:32:49;8.35;;;2.40;;
63394;SDS011;49531;-34.520;150.798;2022-09-01T09:35:31;10.02;;;2.53;;
63394;SDS011;49531;-34.520;150.798;2022-09-01T09:41:03;6.93;;;2.40;;
63394;SDS011;49531;-34.520;150.798;2022-09-01T09:43:36;7.20;;;2.50;;
63394;SDS011;49531;-34.520;150.798;2022-09-01T09:51:35;6.47;;;2.42;;
63394;SDS011;49531;-34.520;150.798;2022-09-01T09:54:11;6.72;;;2.50;;
63394;SDS011;49531;-34.520;150.798;2022-09-01T09:57:23;6.80;;;2.60;;
63394;SDS011;49531;-34.520;150.798;2022-09-01T10:00:27;6.18;;;2.60;;
63394;SDS011;49531;-34.520;150.798;2022-09-01T10:02:43;6.97;;;2.50;;
63394;SDS011;49531;-34.520;150.798;2022-09-01T10:05:25;9.15;;;2.83;;
63394;SDS011;49531;-34.520;150.798;2022-09-01T10:07:57;8.00;;;2.75;;
63394;SDS011;49531;-34.520;150.798;2022-09-01T10:12:57;7.95;;;2.65;;
63394;SDS011;49531;-34.520;150.798;2022-09-01T10:15:25;7.70;;;2.67;;
63394;SDS011;49531;-34.520;150.798;2022-09-01T10:17:59;6.65;;;2.78;;
63394;SDS011;49531;-34.520;150.798;2022-09-01T10:20:39;5.28;;;2.40;;
63394;SDS011;49531;-34.520;150.798;2022-09-01T10:23:18;7.53;;;2.63;;
63394;SDS011;49531;-34.520;150.798;2022-09-01T10:25:45;6.32;;;2.60;;
63394;SDS011;49531;-34.520;150.798;2022-09-01T10:28:15;6.78;;;2.70;;
63394;SDS011;49531;-34.520;150.798;2022-09-01T10:30:50;7.43;;;2.63;;
63394;SDS011;49531;-34.520;150.798;2022-09-01T10:33:21;8.50;;;2.50;;
63394;SDS011;49531;-34.520;150.798;2022-09-01T10:35:49;12.77;;;3.10;;
63394;SDS011;49531;-34.520;150.798;2022-09-01T10:38:22;7.80;;;2.83;;
63394;SDS011;49531;-34.520;150.798;2022-09-01T10:40:57;10.98;;;2.88;;
63394;SDS011;49531;-34.520;150.798;2022-09-01T10:43:46;12.15;;;2.78;;
63394;SDS011;49531;-34.520;150.798;2022-09-01T10:48:51;7.40;;;2.67;;
63394;SDS011;49531;-34.520;150.798;2022-09-01T10:53:54;9.48;;;2.60;;
63394;SDS011;49531;-34.520;150.798;2022-09-01T11:07:04;5.22;;;2.10;;
63394;SDS011;49531;-34.520;150.798;2022-09-01T11:15:40;8.30;;;2.53;;
63394;SDS011;49531;-34.520;150.798;2022-09-01T11:18:15;7.47;;;2.38;;
63394;SDS011;49531;-34.520;150.798;2022-09-01T11:20:54;6.82;;;2.33;;
63394;SDS011;49531;-34.520;150.798;2022-09-01T11:23:38;5.63;;;2.17;;
63394;SDS011;49531;-34.520;150.798;2022-09-01T11:29:00;6.50;;;2.20;;
63394;SDS011;49531;-34.520;150.798;2022-09-01T11:31:28;7.55;;;2.58;;
63394;SDS011;49531;-34.520;150.798;2022-09-01T11:34:01;7.07;;;2.30;;
63394;SDS011;49531;-34.520;150.798;2022-09-01T11:47:18;6.85;;;2.28;;
63394;SDS011;49531;-34.520;150.798;2022-09-01T11:50:06;7.28;;;2.20;;
63394;SDS011;49531;-34.520;150.798;2022-09-01T11:52:55;4.97;;;2.00;;
63394;SDS011;49531;-34.520;150.798;2022-09-01T11:58:00;6.40;;;2.28;;
63394;SDS011;49531;-34.520;150.798;2022-09-01T12:00:32;5.10;;;2.20;;
63394;SDS011;49531;-34.520;150.798;2022-09-01T12:03:25;5.47;;;1.92;;
63394;SDS011;49531;-34.520;150.798;2022-09-01T12:05:51;6.93;;;2.60;;
63394;SDS011;49531;-34.520;150.798;2022-09-01T12:08:26;5.97;;;2.40;;
63394;SDS011;49531;-34.520;150.798;2022-09-01T12:11:12;5.35;;;2.38;;
63394;SDS011;49531;-34.520;150.798;2022-09-01T12:14:02;7.68;;;2.33;;
63394;SDS011;49531;-34.520;150.798;2022-09-01T12:16:31;5.82;;;2.30;;
63394;SDS011;49531;-34.520;150.798;2022-09-01T12:19:04;5.53;;;2.25;;
63394;SDS011;49531;-34.520;150.798;2022-09-01T12:21:39;5.68;;;2.30;;
63394;SDS011;49531;-34.520;150.798;2022-09-01T12:24:15;5.15;;;2.38;;
63394;SDS011;49531;-34.520;150.798;2022-09-01T12:26:45;5.18;;;2.40;;
63394;SDS011;49531;-34.520;150.798;2022-09-01T12:29:13;6.47;;;2.20;;
63394;SDS011;49531;-34.520;150.798;2022-09-01T12:31:43;6.60;;;2.67;;
63394;SDS011;49531;-34.520;150.798;2022-09-01T12:39:45;5.80;;;2.92;;
63394;SDS011;49531;-34.520;150.798;2022-09-01T12:52:47;6.05;;;2.65;;
63394;SDS011;49531;-34.520;150.798;2022-09-01T12:55:17;6.00;;;2.97;;
63394;SDS011;49531;-34.520;150.798;2022-09-01T12:57:54;7.00;;;2.90;;
63394;SDS011;49531;-34.520;150.798;2022-09-01T13:00:23;8.50;;;3.03;;
63394;SDS011;49531;-34.520;150.798;2022-09-01T13:05:43;7.60;;;3.38;;
63394;SDS011;49531;-34.520;150.798;2022-09-01T13:08:16;6.72;;;3.10;;
63394;SDS011;49531;-34.520;150.798;2022-09-01T13:10:54;5.57;;;3.22;;
63394;SDS011;49531;-34.520;150.798;2022-09-01T13:13:25;6.13;;;3.22;;
63394;SDS011;49531;-34.520;150.798;2022-09-01T13:15:54;5.90;;;3.40;;
63394;SDS011;49531;-34.520;150.798;2022-09-01T13:18:24;7.47;;;3.50;;
63394;SDS011;49531;-34.520;150.798;2022-09-01T13:20:51;7.90;;;3.60;;
63394;SDS011;49531;-34.520;150.798;2022-09-01T13:23:20;7.18;;;3.50;;
63394;SDS011;49531;-34.520;150.798;2022-09-01T13:25:47;7.05;;;3.53;;
63394;SDS011;49531;-34.520;150.798;2022-09-01T13:28:16;6.30;;;3.70;;
63394;SDS011;49531;-34.520;150.798;2022-09-01T13:30:44;7.57;;;3.60;;
63394;SDS011;49531;-34.520;150.798;2022-09-01T13:33:17;6.18;;;3.55;;
63394;SDS011;49531;-34.520;150.798;2022-09-01T13:35:45;6.53;;;3.55;;
63394;SDS011;49531;-34.520;150.798;2022-09-01T13:38:13;6.88;;;3.67;;
63394;SDS011;49531;-34.520;150.798;2022-09-01T13:40:41;7.03;;;3.50;;
63394;SDS011;49531;-34.520;150.798;2022-09-01T13:43:10;7.25;;;3.72;;
63394;SDS011;49531;-34.520;150.798;2022-09-01T13:45:38;7.40;;;3.83;;
63394;SDS011;49531;-34.520;150.798;2022-09-01T13:48:06;6.05;;;4.05;;
63394;SDS011;49531;-34.520;150.798;2022-09-01T13:50:34;6.00;;;4.00;;
63394;SDS011;49531;-34.520;150.798;2022-09-01T13:53:03;7.97;;;4.18;;
63394;SDS011;49531;-34.520;150.798;2022-09-01T13:55:32;6.50;;;4.22;;
63394;SDS011;49531;-34.520;150.798;2022-09-01T13:58:03;7.00;;;4.20;;
63394;SDS011;49531;-34.520;150.798;2022-09-01T14:00:32;5.88;;;4.00;;
63394;SDS011;49531;-34.520;150.798;2022-09-01T14:03:05;6.88;;;4.43;;
63394;SDS011;49531;-34.520;150.798;2022-09-01T14:05:36;6.85;;;4.22;;
63394;SDS011;49531;-34.520;150.798;2022-09-01T14:08:09;7.22;;;4.10;;
63394;SDS011;49531;-34.520;150.798;2022-09-01T14:10:39;6.95;;;4.40;;
63394;SDS011;49531;-34.520;150.798;2022-09-01T14:13:13;7.15;;;4.40;;
63394;SDS011;49531;-34.520;150.798;2022-09-01T14:15:40;9.10;;;4.68;;
63394;SDS011;49531;-34.520;150.798;2022-09-01T14:18:09;7.32;;;4.38;;
63394;SDS011;49531;-34.520;150.798;2022-09-01T14:20:36;6.68;;;4.15;;
63394;SDS011;49531;-34.520;150.798;2022-09-01T14:23:07;7.13;;;4.38;;
63394;SDS011;49531;-34.520;150.798;2022-09-01T14:25:35;6.32;;;4.43;;
63394;SDS011;49531;-34.520;150.798;2022-09-01T14:28:06;6.82;;;4.50;;
63394;SDS011;49531;-34.520;150.798;2022-09-01T14:30:33;7.03;;;4.65;;
63394;SDS011;49531;-34.520;150.798;2022-09-01T14:33:01;9.82;;;4.70;;
63394;SDS011;49531;-34.520;150.798;2022-09-01T14:35:29;9.02;;;4.82;;
63394;SDS011;49531;-34.520;150.798;2022-09-01T14:37:59;9.02;;;4.97;;
63394;SDS011;49531;-34.520;150.798;2022-09-01T14:40:29;9.32;;;4.60;;
63394;SDS011;49531;-34.520;150.798;2022-09-01T14:42:56;9.45;;;4.90;;
63394;SDS011;49531;-34.520;150.798;2022-09-01T14:45:24;9.15;;;4.50;;
63394;SDS011;49531;-34.520;150.798;2022-09-01T14:47:56;10.23;;;4.80;;
63394;SDS011;49531;-34.520;150.798;2022-09-01T14:50:26;7.63;;;4.38;;
63394;SDS011;49531;-34.520;150.798;2022-09-01T14:52:57;7.30;;;4.38;;
63394;SDS011;49531;-34.520;150.798;2022-09-01T14:55:26;7.38;;;4.70;;
63394;SDS011;49531;-34.520;150.798;2022-09-01T14:57:54;8.80;;;5.03;;
63394;SDS011;49531;-34.520;150.798;2022-09-01T15:00:22;8.30;;;4.85;;
63394;SDS011;49531;-34.520;150.798;2022-09-01T15:02:50;8.20;;;4.60;;
63394;SDS011;49531;-34.520;150.798;2022-09-01T15:05:17;6.85;;;4.50;;
63394;SDS011;49531;-34.520;150.798;2022-09-01T15:07:44;6.10;;;3.95;;
63394;SDS011;49531;-34.520;150.798;2022-09-01T15:10:13;8.23;;;4.38;;
63394;SDS011;49531;-34.520;150.798;2022-09-01T15:12:42;8.20;;;4.47;;
63394;SDS011;49531;-34.520;150.798;2022-09-01T15:15:09;5.45;;;4.30;;
63394;SDS011;49531;-34.520;150.798;2022-09-01T15:17:37;7.82;;;4.60;;
63394;SDS011;49531;-34.520;150.798;2022-09-01T15:20:04;8.00;;;4.30;;
63394;SDS011;49531;-34.520;150.798;2022-09-01T15:22:49;7.05;;;4.53;;
63394;SDS011;49531;-34.520;150.798;2022-09-01T15:25:16;7.32;;;4.15;;
63394;SDS011;49531;-34.520;150.798;2022-09-01T15:27:43;7.10;;;4.57;;
63394;SDS011;49531;-34.520;150.798;2022-09-01T15:30:11;8.98;;;4.72;;
63394;SDS011;49531;-34.520;150.798;2022-09-01T15:32:46;7.57;;;4.50;;
63394;SDS011;49531;-34.520;150.798;2022-09-01T15:35:15;6.30;;;4.20;;
63394;SDS011;49531;-34.520;150.798;2022-09-01T15:37:46;8.68;;;4.50;;
63394;SDS011;49531;-34.520;150.798;2022-09-01T15:40:15;6.55;;;4.38;;
63394;SDS011;49531;-34.520;150.798;2022-09-01T15:42:43;7.28;;;4.32;;
63394;SDS011;49531;-34.520;150.798;2022-09-01T15:45:12;7.15;;;4.35;;
63394;SDS011;49531;-34.520;150.798;2022-09-01T15:47:44;6.32;;;4.32;;
63394;SDS011;49531;-34.520;150.798;2022-09-01T15:50:13;6.03;;;4.10;;
63394;SDS011;49531;-34.520;150.798;2022-09-01T15:52:47;7.28;;;4.40;;
63394;SDS011;49531;-34.520;150.798;2022-09-01T15:55:30;6.93;;;4.10;;
63394;SDS011;49531;-34.520;150.798;2022-09-01T15:58:05;5.93;;;4.22;;
63394;SDS011;49531;-34.520;150.798;2022-09-01T16:00:33;7.65;;;4.38;;
63394;SDS011;49531;-34.520;150.798;2022-09-01T16:03:01;6.88;;;4.20;;
63394;SDS011;49531;-34.520;150.798;2022-09-01T16:05:28;6.32;;;4.28;;
63394;SDS011;49531;-34.520;150.798;2022-09-01T16:07:57;6.68;;;4.22;;
63394;SDS011;49531;-34.520;150.798;2022-09-01T16:10:26;5.63;;;4.15;;
63394;SDS011;49531;-34.520;150.798;2022-09-01T16:12:54;5.60;;;4.03;;
63394;SDS011;49531;-34.520;150.798;2022-09-01T16:15:22;7.70;;;4.30;;
63394;SDS011;49531;-34.520;150.798;2022-09-01T16:17:55;5.63;;;4.05;;
63394;SDS011;49531;-34.520;150.798;2022-09-01T16:20:40;8.18;;;4.13;;
63394;SDS011;49531;-34.520;150.798;2022-09-01T16:23:21;5.90;;;3.80;;
63394;SDS011;49531;-34.520;150.798;2022-09-01T16:25:57;5.63;;;3.78;;
63394;SDS011;49531;-34.520;150.798;2022-09-01T16:28:29;5.50;;;3.90;;
63394;SDS011;49531;-34.520;150.798;2022-09-01T16:31:23;6.15;;;3.88;;
63394;SDS011;49531;-34.520;150.798;2022-09-01T16:33:53;5.20;;;3.58;;
63394;SDS011;49531;-34.520;150.798;2022-09-01T16:41:58;4.50;;;3.38;;